Wetterdaten: Woche 14.07.14 - 20.07.14 (KW29)
Datum Zeit Temperatur Luftfeuchte Luftdruck Niederschlag Windrichtung Sonnenschein Solar Wind
14.07.2014 00:00 16,1 C 88 % 1009,8 hPa 0,0 l/m SW 0,00 h 0 W/m 10,3 km/h (2 Bft)
14.07.2014 01:00 15,7 C 90 % 1009,9 hPa 0,0 l/m SW 0,00 h 0 W/m 12,9 km/h (3 Bft)
14.07.2014 02:00 15,0 C 93 % 1009,9 hPa 0,0 l/m SW 0,00 h 0 W/m 9,3 km/h (2 Bft)
14.07.2014 03:00 14,8 C 95 % 1010,0 hPa 0,0 l/m SW 0,00 h 0 W/m 9,0 km/h (2 Bft)
14.07.2014 04:00 14,9 C 96 % 1010,3 hPa 0,0 l/m SW 0,00 h 0 W/m 8,3 km/h (2 Bft)
14.07.2014 05:00 14,8 C 97 % 1010,5 hPa 0,0 l/m SW 0,00 h 8 W/m 10,5 km/h (2 Bft)
14.07.2014 06:00 14,9 C 97 % 1010,6 hPa 0,0 l/m S-SW 0,00 h 34 W/m 11,7 km/h (2 Bft)
14.07.2014 07:00 15,2 C 96 % 1011,1 hPa 0,0 l/m SW 0,00 h 62 W/m 13,2 km/h (3 Bft)
14.07.2014 08:00 16,0 C 94 % 1011,5 hPa 0,0 l/m SW 0,00 h 100 W/m 12,2 km/h (2 Bft)
14.07.2014 09:00 17,4 C 87 % 1011,9 hPa 0,0 l/m W-SW 0,17 h 262 W/m 16,8 km/h (3 Bft)
14.07.2014 10:00 17,8 C 84 % 1012,2 hPa 0,0 l/m W-SW 0,33 h 372 W/m 16,6 km/h (3 Bft)
14.07.2014 11:00 19,4 C 75 % 1012,0 hPa 0,0 l/m W-SW 0,17 h 357 W/m 13,7 km/h (3 Bft)
14.07.2014 12:00 19,9 C 74 % 1012,0 hPa 0,0 l/m W-SW 0,42 h 506 W/m 16,0 km/h (3 Bft)
14.07.2014 13:00 20,3 C 78 % 1011,9 hPa 0,0 l/m W-SW 0,75 h 815 W/m 12,1 km/h (2 Bft)
14.07.2014 14:00 20,6 C 72 % 1011,8 hPa 0,2 l/m W-NW 0,25 h 282 W/m 16,9 km/h (3 Bft)
14.07.2014 15:00 17,9 C 84 % 1012,5 hPa 0,4 l/m W-SW 0,17 h 284 W/m 8,4 km/h (2 Bft)
14.07.2014 16:00 19,7 C 79 % 1012,4 hPa 0,0 l/m W 0,00 h 209 W/m 8,8 km/h (2 Bft)
14.07.2014 17:00 21,3 C 67 % 1012,6 hPa 0,0 l/m NW 0,42 h 320 W/m 9,0 km/h (2 Bft)
14.07.2014 18:00 20,6 C 69 % 1012,8 hPa 0,0 l/m N 0,25 h 247 W/m 5,9 km/h (2 Bft)
14.07.2014 19:00 19,9 C 75 % 1013,3 hPa 0,0 l/m N-NW 0,08 h 42 W/m 3,7 km/h (1 Bft)
14.07.2014 20:00 17,4 C 85 % 1014,2 hPa 0,8 l/m W-NW 0,00 h 8 W/m 9,8 km/h (2 Bft)
14.07.2014 21:00 15,5 C 93 % 1015,2 hPa 0,4 l/m W-NW 0,00 h 5 W/m 2,5 km/h (1 Bft)
14.07.2014 22:00 15,3 C 95 % 1016,0 hPa 0,0 l/m N 0,00 h 0 W/m 1,2 km/h (1 Bft)
14.07.2014 23:00 15,2 C 96 % 1016,5 hPa 0,0 l/m N 0,00 h 0 W/m 0,9 km/h (0 Bft)
15.07.2014 00:00 15,3 C 96 % 1016,9 hPa 0,0 l/m W-NW 0,00 h 0 W/m 1,5 km/h (1 Bft)
15.07.2014 01:00 15,0 C 97 % 1017,4 hPa 0,0 l/m N 0,00 h 0 W/m 1,3 km/h (1 Bft)
15.07.2014 02:00 14,9 C 98 % 1017,6 hPa 0,0 l/m N 0,00 h 0 W/m 0,0 km/h (0 Bft)
15.07.2014 03:00 14,5 C 98 % 1017,8 hPa 0,0 l/m W-NW 0,00 h 0 W/m 0,5 km/h (0 Bft)
15.07.2014 04:00 14,4 C 98 % 1017,9 hPa 0,0 l/m N 0,00 h 0 W/m 0,1 km/h (0 Bft)
15.07.2014 05:00 14,3 C 99 % 1018,2 hPa 0,0 l/m N 0,00 h 6 W/m 0,4 km/h (0 Bft)
15.07.2014 06:00 14,5 C 99 % 1018,3 hPa 0,0 l/m W-NW 0,00 h 28 W/m 1,1 km/h (0 Bft)
15.07.2014 07:00 15,8 C 96 % 1018,5 hPa 0,0 l/m W 0,67 h 185 W/m 3,9 km/h (1 Bft)
15.07.2014 08:00 17,2 C 84 % 1018,6 hPa 0,0 l/m W 0,83 h 324 W/m 3,1 km/h (1 Bft)
15.07.2014 09:00 18,6 C 73 % 1018,5 hPa 0,0 l/m W 1,00 h 516 W/m 4,4 km/h (1 Bft)
15.07.2014 10:00 19,9 C 68 % 1018,3 hPa 0,0 l/m O 0,75 h 526 W/m 5,9 km/h (2 Bft)
15.07.2014 11:00 19,8 C 66 % 1018,5 hPa 0,0 l/m O 0,08 h 205 W/m 4,0 km/h (1 Bft)
15.07.2014 12:00 20,9 C 62 % 1018,6 hPa 0,0 l/m O 0,00 h 319 W/m 6,0 km/h (2 Bft)
15.07.2014 13:00 21,6 C 62 % 1018,6 hPa 0,0 l/m N-NO 0,25 h 430 W/m 6,5 km/h (2 Bft)
15.07.2014 14:00 22,1 C 60 % 1018,4 hPa 0,0 l/m NW 0,25 h 470 W/m 7,6 km/h (2 Bft)
15.07.2014 15:00 22,7 C 58 % 1018,2 hPa 0,0 l/m NW 0,42 h 560 W/m 6,7 km/h (2 Bft)
15.07.2014 16:00 24,2 C 54 % 1018,1 hPa 0,0 l/m NW 1,00 h 770 W/m 10,6 km/h (2 Bft)
15.07.2014 17:00 24,4 C 52 % 1017,8 hPa 0,0 l/m N 0,83 h 489 W/m 7,9 km/h (2 Bft)
15.07.2014 18:00 23,8 C 54 % 1017,6 hPa 0,0 l/m N-NW 0,83 h 409 W/m 3,5 km/h (1 Bft)
15.07.2014 19:00 23,5 C 55 % 1017,7 hPa 0,0 l/m N-NW 1,00 h 223 W/m 4,8 km/h (1 Bft)
15.07.2014 20:00 20,9 C 70 % 1018,0 hPa 0,0 l/m N 0,17 h 33 W/m 1,3 km/h (1 Bft)
15.07.2014 21:00 18,4 C 77 % 1018,5 hPa 0,0 l/m N 0,00 h 7 W/m 0,7 km/h (0 Bft)
15.07.2014 22:00 16,9 C 83 % 1019,0 hPa 0,0 l/m N 0,00 h 0 W/m 0,3 km/h (0 Bft)
15.07.2014 23:00 15,8 C 86 % 1019,3 hPa 0,0 l/m N 0,00 h 0 W/m 0,4 km/h (0 Bft)
16.07.2014 00:00 15,5 C 88 % 1019,4 hPa 0,0 l/m N 0,00 h 0 W/m 1,1 km/h (0 Bft)
16.07.2014 01:00 15,0 C 89 % 1019,4 hPa 0,0 l/m N 0,00 h 0 W/m 0,3 km/h (0 Bft)
16.07.2014 02:00 14,4 C 91 % 1019,1 hPa 0,0 l/m N 0,00 h 0 W/m 0,8 km/h (0 Bft)
16.07.2014 03:00 14,1 C 92 % 1019,1 hPa 0,0 l/m N-NW 0,00 h 0 W/m 4,2 km/h (1 Bft)
16.07.2014 04:00 14,5 C 89 % 1019,0 hPa 0,0 l/m N-NW 0,00 h 0 W/m 6,7 km/h (2 Bft)
16.07.2014 05:00 14,5 C 86 % 1019,0 hPa 0,0 l/m N-NW 0,00 h 6 W/m 6,9 km/h (2 Bft)
16.07.2014 06:00 14,3 C 86 % 1019,1 hPa 0,0 l/m N-NW 0,00 h 20 W/m 2,5 km/h (1 Bft)
16.07.2014 07:00 15,5 C 84 % 1019,4 hPa 0,0 l/m N 0,33 h 134 W/m 1,2 km/h (1 Bft)
16.07.2014 08:00 18,3 C 73 % 1019,5 hPa 0,0 l/m N-NW 1,00 h 345 W/m 3,3 km/h (1 Bft)
16.07.2014 09:00 19,6 C 72 % 1019,3 hPa 0,0 l/m N-NW 0,67 h 392 W/m 4,3 km/h (1 Bft)
16.07.2014 10:00 22,2 C 63 % 1019,1 hPa 0,0 l/m O 1,00 h 643 W/m 11,4 km/h (2 Bft)
16.07.2014 11:00 23,6 C 54 % 1019,0 hPa 0,0 l/m O-SO 1,00 h 765 W/m 12,1 km/h (2 Bft)
16.07.2014 12:00 24,3 C 53 % 1018,8 hPa 0,0 l/m O 0,67 h 586 W/m 12,8 km/h (3 Bft)
16.07.2014 13:00 24,4 C 53 % 1018,5 hPa 0,0 l/m O-SO 0,50 h 588 W/m 8,9 km/h (2 Bft)
16.07.2014 14:00 26,2 C 48 % 1018,1 hPa 0,0 l/m O-SO 0,92 h 852 W/m 9,7 km/h (2 Bft)
16.07.2014 15:00 25,9 C 48 % 1017,9 hPa 0,0 l/m N-NO 0,58 h 604 W/m 9,5 km/h (2 Bft)
16.07.2014 16:00 25,9 C 48 % 1017,8 hPa 0,0 l/m O-SO 0,50 h 426 W/m 10,1 km/h (2 Bft)
16.07.2014 17:00 26,9 C 45 % 1017,6 hPa 0,0 l/m O-NO 0,92 h 550 W/m 10,3 km/h (2 Bft)
16.07.2014 18:00 26,2 C 47 % 1017,4 hPa 0,0 l/m O-NO 0,83 h 363 W/m 6,3 km/h (2 Bft)
16.07.2014 19:00 25,8 C 47 % 1017,2 hPa 0,0 l/m O-NO 1,00 h 210 W/m 5,9 km/h (2 Bft)
16.07.2014 20:00 23,5 C 59 % 1017,4 hPa 0,0 l/m NO 0,17 h 32 W/m 4,7 km/h (1 Bft)
16.07.2014 21:00 20,5 C 71 % 1018,0 hPa 0,0 l/m NO 0,00 h 6 W/m 2,7 km/h (1 Bft)
16.07.2014 22:00 19,3 C 76 % 1018,6 hPa 0,0 l/m NO 0,00 h 0 W/m 2,0 km/h (1 Bft)
16.07.2014 23:00 18,1 C 81 % 1018,9 hPa 0,0 l/m NO 0,00 h 0 W/m 3,1 km/h (1 Bft)
17.07.2014 00:00 17,4 C 84 % 1019,1 hPa 0,0 l/m N 0,00 h 0 W/m 2,0 km/h (1 Bft)
17.07.2014 01:00 17,5 C 84 % 1019,0 hPa 0,0 l/m NO 0,00 h 0 W/m 4,1 km/h (1 Bft)
17.07.2014 02:00 16,6 C 87 % 1018,8 hPa 0,0 l/m NO 0,00 h 0 W/m 4,3 km/h (1 Bft)
17.07.2014 03:00 16,5 C 86 % 1018,6 hPa 0,0 l/m NO 0,00 h 0 W/m 6,5 km/h (2 Bft)
17.07.2014 04:00 16,0 C 88 % 1018,6 hPa 0,0 l/m N 0,00 h 0 W/m 0,5 km/h (0 Bft)
17.07.2014 05:00 15,1 C 92 % 1018,7 hPa 0,0 l/m N 0,00 h 6 W/m 0,0 km/h (0 Bft)
17.07.2014 06:00 14,6 C 94 % 1018,8 hPa 0,0 l/m N 0,00 h 26 W/m 0,5 km/h (0 Bft)
17.07.2014 07:00 16,7 C 88 % 1019,2 hPa 0,0 l/m N 0,50 h 155 W/m 0,5 km/h (0 Bft)
17.07.2014 08:00 19,3 C 78 % 1019,3 hPa 0,0 l/m N-NO 1,00 h 320 W/m 4,7 km/h (1 Bft)
17.07.2014 09:00 21,9 C 68 % 1019,2 hPa 0,0 l/m O-SO 1,00 h 486 W/m 10,6 km/h (2 Bft)
17.07.2014 10:00 23,6 C 61 % 1019,1 hPa 0,0 l/m O 1,00 h 629 W/m 12,3 km/h (3 Bft)
17.07.2014 11:00 24,6 C 56 % 1019,0 hPa 0,0 l/m O 0,92 h 700 W/m 12,0 km/h (2 Bft)
17.07.2014 12:00 25,2 C 54 % 1018,8 hPa 0,0 l/m NO 0,75 h 724 W/m 11,3 km/h (2 Bft)
17.07.2014 13:00 26,2 C 49 % 1018,5 hPa 0,0 l/m O 0,92 h 878 W/m 9,7 km/h (2 Bft)
17.07.2014 14:00 26,8 C 47 % 1017,9 hPa 0,0 l/m N-NO 0,92 h 918 W/m 9,5 km/h (2 Bft)
17.07.2014 15:00 27,8 C 42 % 1017,5 hPa 0,0 l/m N-NO 0,92 h 777 W/m 8,6 km/h (2 Bft)
17.07.2014 16:00 28,0 C 41 % 1017,4 hPa 0,0 l/m O 1,00 h 679 W/m 8,4 km/h (2 Bft)
17.07.2014 17:00 28,3 C 39 % 1017,0 hPa 0,0 l/m N 1,00 h 604 W/m 8,7 km/h (2 Bft)
17.07.2014 18:00 28,1 C 39 % 1016,7 hPa 0,0 l/m O 0,92 h 380 W/m 12,9 km/h (3 Bft)
17.07.2014 19:00 27,1 C 41 % 1016,5 hPa 0,0 l/m O 1,00 h 224 W/m 9,4 km/h (2 Bft)
17.07.2014 20:00 25,1 C 47 % 1016,7 hPa 0,0 l/m O-NO 0,17 h 33 W/m 7,4 km/h (2 Bft)
17.07.2014 21:00 21,1 C 62 % 1017,0 hPa 0,0 l/m N 0,00 h 7 W/m 1,2 km/h (1 Bft)
17.07.2014 22:00 19,1 C 69 % 1017,3 hPa 0,0 l/m N 0,00 h 0 W/m 0,8 km/h (0 Bft)
17.07.2014 23:00 17,6 C 76 % 1017,4 hPa 0,0 l/m N 0,00 h 0 W/m 0,4 km/h (0 Bft)
18.07.2014 00:00 16,6 C 80 % 1017,4 hPa 0,0 l/m N 0,00 h 0 W/m 0,9 km/h (0 Bft)
18.07.2014 01:00 16,2 C 81 % 1017,2 hPa 0,0 l/m N 0,00 h 0 W/m 1,9 km/h (1 Bft)
18.07.2014 02:00 15,9 C 81 % 1017,1 hPa 0,0 l/m O-NO 0,00 h 0 W/m 3,5 km/h (1 Bft)
18.07.2014 03:00 15,6 C 81 % 1017,0 hPa 0,0 l/m O-NO 0,00 h 0 W/m 4,3 km/h (1 Bft)
18.07.2014 04:00 14,8 C 84 % 1016,8 hPa 0,0 l/m N 0,00 h 0 W/m 1,3 km/h (1 Bft)
18.07.2014 05:00 13,4 C 90 % 1016,9 hPa 0,0 l/m N 0,00 h 7 W/m 0,0 km/h (0 Bft)
18.07.2014 06:00 13,3 C 92 % 1017,3 hPa 0,0 l/m N 0,00 h 40 W/m 0,3 km/h (0 Bft)
18.07.2014 07:00 15,7 C 84 % 1017,5 hPa 0,0 l/m N 0,75 h 178 W/m 0,3 km/h (0 Bft)
18.07.2014 08:00 19,3 C 74 % 1017,3 hPa 0,0 l/m N 1,00 h 350 W/m 1,7 km/h (1 Bft)
18.07.2014 09:00 22,0 C 64 % 1017,1 hPa 0,0 l/m O-NO 1,00 h 518 W/m 2,5 km/h (1 Bft)
18.07.2014 10:00 24,1 C 54 % 1017,0 hPa 0,0 l/m O-NO 1,00 h 668 W/m 6,1 km/h (2 Bft)
18.07.2014 11:00 25,8 C 48 % 1017,0 hPa 0,0 l/m O-SO 1,00 h 786 W/m 9,4 km/h (2 Bft)
18.07.2014 12:00 27,4 C 43 % 1016,6 hPa 0,0 l/m SO 1,00 h 861 W/m 11,0 km/h (2 Bft)
18.07.2014 13:00 28,2 C 39 % 1016,2 hPa 0,0 l/m SO 1,00 h 903 W/m 10,9 km/h (2 Bft)
18.07.2014 14:00 29,0 C 36 % 1015,7 hPa 0,0 l/m O 1,00 h 869 W/m 8,7 km/h (2 Bft)
18.07.2014 15:00 29,6 C 33 % 1015,4 hPa 0,0 l/m N 1,00 h 827 W/m 9,8 km/h (2 Bft)
18.07.2014 16:00 29,9 C 29 % 1015,0 hPa 0,0 l/m NO 1,00 h 724 W/m 8,6 km/h (2 Bft)
18.07.2014 17:00 30,3 C 30 % 1014,7 hPa 0,0 l/m O-SO 1,00 h 576 W/m 7,6 km/h (2 Bft)
18.07.2014 18:00 29,7 C 31 % 1014,3 hPa 0,0 l/m O 1,00 h 414 W/m 8,7 km/h (2 Bft)
18.07.2014 19:00 28,8 C 34 % 1014,2 hPa 0,0 l/m O 1,00 h 239 W/m 8,3 km/h (2 Bft)
18.07.2014 20:00 25,0 C 53 % 1014,0 hPa 0,0 l/m O 0,25 h 43 W/m 2,0 km/h (1 Bft)
18.07.2014 21:00 21,0 C 65 % 1014,1 hPa 0,0 l/m N 0,00 h 6 W/m 0,3 km/h (0 Bft)
18.07.2014 22:00 19,3 C 71 % 1014,0 hPa 0,0 l/m N 0,00 h 0 W/m 0,8 km/h (0 Bft)
18.07.2014 23:00 18,1 C 76 % 1014,1 hPa 0,0 l/m O 0,00 h 0 W/m 1,6 km/h (1 Bft)
19.07.2014 00:00 17,6 C 75 % 1013,8 hPa 0,0 l/m O 0,00 h 0 W/m 3,6 km/h (1 Bft)
19.07.2014 01:00 17,1 C 74 % 1013,5 hPa 0,0 l/m O 0,00 h 0 W/m 4,4 km/h (1 Bft)
19.07.2014 02:00 16,7 C 75 % 1013,2 hPa 0,0 l/m O 0,00 h 0 W/m 5,1 km/h (1 Bft)
19.07.2014 03:00 16,3 C 77 % 1013,1 hPa 0,0 l/m O 0,00 h 0 W/m 3,6 km/h (1 Bft)
19.07.2014 04:00 15,3 C 81 % 1012,9 hPa 0,0 l/m N 0,00 h 0 W/m 2,1 km/h (1 Bft)
19.07.2014 05:00 14,7 C 85 % 1012,8 hPa 0,0 l/m N 0,00 h 7 W/m 2,3 km/h (1 Bft)
19.07.2014 06:00 14,2 C 88 % 1012,7 hPa 0,0 l/m N 0,00 h 37 W/m 0,7 km/h (0 Bft)
19.07.2014 07:00 16,8 C 81 % 1012,4 hPa 0,0 l/m O 0,75 h 175 W/m 3,6 km/h (1 Bft)
19.07.2014 08:00 19,2 C 75 % 1012,3 hPa 0,0 l/m O 1,00 h 346 W/m 4,3 km/h (1 Bft)
19.07.2014 09:00 22,0 C 66 % 1012,1 hPa 0,0 l/m O 1,00 h 500 W/m 6,0 km/h (2 Bft)
19.07.2014 10:00 24,6 C 60 % 1011,5 hPa 0,0 l/m O 1,00 h 621 W/m 9,9 km/h (2 Bft)
19.07.2014 11:00 26,6 C 53 % 1011,3 hPa 0,0 l/m O 1,00 h 737 W/m 8,3 km/h (2 Bft)
19.07.2014 12:00 28,4 C 47 % 1011,1 hPa 0,0 l/m SO 1,00 h 862 W/m 7,1 km/h (2 Bft)
19.07.2014 13:00 30,0 C 41 % 1010,9 hPa 0,0 l/m S-SO 1,00 h 861 W/m 8,3 km/h (2 Bft)
19.07.2014 14:00 31,4 C 37 % 1010,4 hPa 0,0 l/m S 1,00 h 846 W/m 8,3 km/h (2 Bft)
19.07.2014 15:00 32,0 C 34 % 1010,2 hPa 0,0 l/m W-SW 1,00 h 801 W/m 8,3 km/h (2 Bft)
19.07.2014 16:00 32,4 C 32 % 1009,9 hPa 0,0 l/m W-SW 1,00 h 639 W/m 5,2 km/h (1 Bft)
19.07.2014 17:00 31,3 C 38 % 1009,2 hPa 0,0 l/m SW 0,42 h 308 W/m 3,1 km/h (1 Bft)
19.07.2014 18:00 29,5 C 54 % 1008,8 hPa 0,0 l/m N 0,50 h 282 W/m 0,8 km/h (0 Bft)
19.07.2014 19:00 29,0 C 55 % 1008,7 hPa 0,0 l/m N 0,83 h 174 W/m 0,8 km/h (0 Bft)
19.07.2014 20:00 25,6 C 67 % 1008,8 hPa 0,0 l/m N 0,00 h 19 W/m 1,2 km/h (1 Bft)
19.07.2014 21:00 23,2 C 69 % 1008,7 hPa 0,0 l/m N 0,08 h 6 W/m 0,5 km/h (0 Bft)
19.07.2014 22:00 21,4 C 73 % 1008,5 hPa 0,0 l/m N 0,00 h 0 W/m 1,3 km/h (1 Bft)
19.07.2014 23:00 20,3 C 75 % 1008,3 hPa 0,0 l/m S-SW 0,00 h 0 W/m 2,9 km/h (1 Bft)
20.07.2014 00:00 19,1 C 80 % 1008,0 hPa 0,0 l/m N 0,00 h 0 W/m 0,8 km/h (0 Bft)
20.07.2014 01:00 19,0 C 80 % 1007,5 hPa 0,0 l/m N 0,00 h 0 W/m 0,3 km/h (0 Bft)
20.07.2014 02:00 18,8 C 80 % 1007,0 hPa 0,0 l/m N 0,00 h 0 W/m 0,9 km/h (0 Bft)
20.07.2014 03:00 18,8 C 79 % 1006,6 hPa 0,0 l/m N 0,00 h 0 W/m 1,2 km/h (1 Bft)
20.07.2014 04:00 18,4 C 82 % 1006,5 hPa 0,0 l/m N 0,00 h 0 W/m 0,4 km/h (0 Bft)
20.07.2014 05:00 18,0 C 84 % 1006,2 hPa 0,0 l/m N 0,00 h 6 W/m 2,1 km/h (1 Bft)
20.07.2014 06:00 17,6 C 87 % 1006,4 hPa 0,0 l/m N 0,00 h 34 W/m 2,4 km/h (1 Bft)
20.07.2014 07:00 19,9 C 80 % 1007,1 hPa 0,0 l/m S-SW 0,75 h 169 W/m 2,9 km/h (1 Bft)
20.07.2014 08:00 22,2 C 72 % 1008,0 hPa 0,0 l/m N 0,75 h 306 W/m 7,5 km/h (2 Bft)
20.07.2014 09:00 24,0 C 63 % 1008,2 hPa 0,0 l/m N-NW 0,33 h 312 W/m 9,5 km/h (2 Bft)
20.07.2014 10:00 25,4 C 55 % 1007,8 hPa 0,0 l/m N-NO 0,50 h 386 W/m 10,3 km/h (2 Bft)
20.07.2014 11:00 25,7 C 55 % 1008,3 hPa 0,0 l/m NO 0,25 h 399 W/m 4,5 km/h (1 Bft)
20.07.2014 12:00 27,6 C 48 % 1008,4 hPa 0,0 l/m N-NO 0,92 h 758 W/m 7,6 km/h (2 Bft)
20.07.2014 13:00 27,6 C 52 % 1008,2 hPa 0,0 l/m SW 0,17 h 261 W/m 7,6 km/h (2 Bft)
20.07.2014 14:00 26,1 C 61 % 1008,2 hPa 0,0 l/m W-NW 0,00 h 275 W/m 16,1 km/h (3 Bft)
20.07.2014 15:00 26,6 C 56 % 1008,0 hPa 0,0 l/m W-NW 0,50 h 448 W/m 16,2 km/h (3 Bft)
20.07.2014 16:00 26,1 C 53 % 1008,1 hPa 0,0 l/m N 0,25 h 316 W/m 18,5 km/h (3 Bft)
20.07.2014 17:00 23,8 C 59 % 1007,7 hPa 0,0 l/m N-NO 0,17 h 222 W/m 21,2 km/h (4 Bft)
20.07.2014 18:00 21,8 C 64 % 1007,3 hPa 0,0 l/m N-NO 0,00 h 92 W/m 14,9 km/h (3 Bft)
20.07.2014 19:00 21,3 C 66 % 1006,8 hPa 0,0 l/m NO 0,00 h 64 W/m 10,5 km/h (2 Bft)
20.07.2014 20:00 20,9 C 68 % 1006,8 hPa 0,0 l/m NO 0,00 h 27 W/m 7,6 km/h (2 Bft)
20.07.2014 21:00 20,3 C 70 % 1007,0 hPa 0,0 l/m NO 0,00 h 0 W/m 5,9 km/h (2 Bft)
20.07.2014 22:00 19,8 C 72 % 1007,3 hPa 0,0 l/m NO 0,00 h 0 W/m 7,4 km/h (2 Bft)
20.07.2014 23:00 18,9 C 76 % 1007,4 hPa 0,0 l/m N-NO 0,00 h 0 W/m 5,5 km/h (1 Bft)
Min-Datum _ 18.07.14 18.07.14 20.07.14 - - - - 14.07.14
_ Min-Zeit 05:55 16:45 05:55 - - - - 15:20
Minimum _ 12,9 C 27 % 1006,1 hPa - - - - 0,0 km/h (0 Bft)
Max-Datum _ 19.07.14 15.07.14 16.07.14 14.07.14 - 14.07.14 15.07.14 20.07.14
_ Max-Zeit 15:30 04:30 08:05 20:20 - 09:40 14:40 17:20
Maximum _ 32,7 C 99 % 1019,7 hPa 0,8 l/m - 0,08 h 1055 W/m 27,4 km/h
N (4 Bft)
Durchschnitt _ 20,7 C 70 % 1014,5 hPa #1,8 l/m O #62:20 h 363 W/m 6,0 km/h (2 Bft)